createdAt,value
2023-02-06T00:01:42.234Z,102562.00
2023-02-06T00:04:10.497Z,102562.92
2023-02-06T00:06:38.810Z,102564.27
2023-02-06T00:09:07.712Z,102562.52
2023-02-06T00:11:35.726Z,102559.28
2023-02-06T00:14:04.450Z,102556.41
2023-02-06T00:16:34.660Z,102554.47
2023-02-06T00:19:03.350Z,102546.91
2023-02-06T00:21:31.733Z,102555.64
2023-02-06T00:24:02.123Z,102555.09
2023-02-06T00:26:31.732Z,102555.65
2023-02-06T00:28:59.914Z,102555.23
2023-02-06T00:31:28.108Z,102559.64
2023-02-06T00:33:56.261Z,102555.92
2023-02-06T00:36:24.424Z,102555.20
2023-02-06T00:38:53.221Z,102553.11
2023-02-06T00:41:21.942Z,102557.91
2023-02-06T00:43:52.544Z,102558.61
2023-02-06T00:46:21.355Z,102556.70
2023-02-06T00:48:49.327Z,102557.35
2023-02-06T00:51:17.644Z,102556.52
2023-02-06T00:53:45.736Z,102550.84
2023-02-06T00:56:14.765Z,102552.77
2023-02-06T00:58:42.801Z,102553.58
2023-02-06T01:01:12.613Z,102553.05
2023-02-06T01:03:40.596Z,102547.89
2023-02-06T01:06:10.699Z,102547.04
2023-02-06T01:08:38.821Z,102541.27
2023-02-06T01:11:21.481Z,102538.73
2023-02-06T01:13:50.180Z,102534.69
2023-02-06T01:16:22.103Z,102527.49
2023-02-06T01:18:51.017Z,102532.44
2023-02-06T01:21:22.805Z,102531.92
2023-02-06T01:23:53.624Z,102525.73
2023-02-06T01:26:24.644Z,102521.83
2023-02-06T01:28:53.793Z,102526.25
2023-02-06T01:31:25.768Z,102524.05
2023-02-06T01:33:55.928Z,102519.69
2023-02-06T01:36:24.431Z,102526.88
2023-02-06T01:38:52.905Z,102516.40
2023-02-06T01:41:23.120Z,102512.74
2023-02-06T01:44:31.628Z,102505.84
2023-02-06T01:46:59.850Z,102507.48
2023-02-06T01:49:35.704Z,102511.70
2023-02-06T01:52:27.208Z,102509.88
2023-02-06T01:55:01.145Z,102503.50
2023-02-06T01:57:30.195Z,102499.70
2023-02-06T02:00:03.246Z,102498.02
2023-02-06T02:02:45.128Z,102500.42
2023-02-06T02:05:13.556Z,102498.08
2023-02-06T02:07:51.211Z,102496.47
2023-02-06T02:10:19.420Z,102501.05
2023-02-06T02:12:47.384Z,102506.14
2023-02-06T02:15:15.452Z,102506.64
2023-02-06T02:17:55.859Z,102512.57
2023-02-06T02:20:39.707Z,102514.67
2023-02-06T02:23:24.524Z,102518.03
2023-02-06T02:26:05.187Z,102514.87
2023-02-06T02:29:07.705Z,102518.15
2023-02-06T02:31:43.125Z,102515.64
2023-02-06T02:34:39.543Z,102522.08
2023-02-06T02:37:36.905Z,102517.44
2023-02-06T02:40:11.336Z,102517.45
2023-02-06T02:42:58.784Z,102518.33
2023-02-06T02:45:40.874Z,102519.86
2023-02-06T02:48:14.478Z,102526.91
2023-02-06T02:50:43.640Z,102523.38
2023-02-06T02:53:13.658Z,102529.73
2023-02-06T02:55:42.792Z,102535.69
2023-02-06T02:58:15.234Z,102538.45
2023-02-06T03:00:56.934Z,102540.81
2023-02-06T03:03:29.081Z,102542.30
2023-02-06T03:06:18.985Z,102544.98
2023-02-06T03:09:23.081Z,102542.09
2023-02-06T03:12:02.312Z,102535.17
2023-02-06T03:14:40.016Z,102541.42
2023-02-06T03:17:18.011Z,102537.50
2023-02-06T03:19:51.865Z,102530.83
2023-02-06T03:22:24.658Z,102532.29
2023-02-06T03:24:54.692Z,102532.07
2023-02-06T03:27:24.021Z,102535.21
2023-02-06T03:29:55.032Z,102530.90
2023-02-06T03:32:32.756Z,102527.17
2023-02-06T03:35:07.328Z,102526.00
2023-02-06T03:37:37.134Z,102522.77
2023-02-06T03:40:07.767Z,102521.34
2023-02-06T03:42:40.880Z,102520.38
2023-02-06T03:45:29.159Z,102523.86
2023-02-06T03:48:02.912Z,102523.69
2023-02-06T03:50:33.135Z,102521.52
2023-02-06T03:53:04.330Z,102520.84
2023-02-06T03:55:32.603Z,102520.86
2023-02-06T03:58:05.328Z,102517.94
2023-02-06T04:00:34.892Z,102521.16
2023-02-06T04:03:04.462Z,102523.06
2023-02-06T04:05:32.611Z,102528.44
2023-02-06T04:08:00.901Z,102529.62
2023-02-06T04:10:29.019Z,102533.39
2023-02-06T04:12:57.522Z,102536.02
2023-02-06T04:15:25.473Z,102531.44
2023-02-06T04:18:00.424Z,102536.14
2023-02-06T04:20:30.082Z,102536.36
2023-02-06T04:22:59.335Z,102532.36
2023-02-06T04:25:27.494Z,102525.98
2023-02-06T04:27:55.523Z,102522.92
2023-02-06T04:30:23.769Z,102525.40
2023-02-06T04:32:52.533Z,102524.99
2023-02-06T04:35:21.198Z,102521.44
2023-02-06T04:37:49.368Z,102518.02
2023-02-06T04:40:17.872Z,102514.64
2023-02-06T04:42:46.847Z,102512.55
2023-02-06T04:45:15.127Z,102517.54
2023-02-06T04:47:43.211Z,102516.82
2023-02-06T04:50:11.366Z,102517.00
2023-02-06T04:52:39.333Z,102516.94
2023-02-06T04:55:07.980Z,102510.77
2023-02-06T04:57:36.090Z,102511.23
2023-02-06T05:00:06.581Z,102509.48
2023-02-06T05:02:39.648Z,102505.91
2023-02-06T05:05:09.727Z,102512.38
2023-02-06T05:07:37.794Z,102510.23
2023-02-06T05:10:06.380Z,102511.74
2023-02-06T05:12:34.552Z,102516.48
2023-02-06T05:15:02.614Z,102520.34
2023-02-06T05:17:30.953Z,102519.40
2023-02-06T05:19:59.375Z,102520.90
2023-02-06T05:22:27.545Z,102523.21
2023-02-06T05:24:55.517Z,102523.20
2023-02-06T05:27:24.824Z,102525.73
2023-02-06T05:29:54.875Z,102525.77
2023-02-06T05:32:25.870Z,102527.20
2023-02-06T05:34:54.286Z,102525.34
2023-02-06T05:37:22.442Z,102525.02
2023-02-06T05:39:50.500Z,102525.02
2023-02-06T05:42:18.770Z,102524.87
2023-02-06T05:44:46.981Z,102524.88
2023-02-06T05:47:15.118Z,102526.08
2023-02-06T05:49:44.419Z,102528.30
2023-02-06T05:52:12.594Z,102530.36
2023-02-06T05:54:40.882Z,102526.09
2023-02-06T05:57:09.364Z,102526.86
2023-02-06T05:59:37.534Z,102531.73
2023-02-06T06:02:06.636Z,102531.02
2023-02-06T06:04:34.761Z,102531.31
2023-02-06T06:07:02.861Z,102530.53
2023-02-06T06:09:30.831Z,102531.10
2023-02-06T06:11:58.842Z,102531.55
2023-02-06T06:14:27.642Z,102533.27
2023-02-06T06:16:55.669Z,102532.95
2023-02-06T06:19:23.602Z,102534.69
2023-02-06T06:21:51.921Z,102534.39
2023-02-06T06:24:19.961Z,102532.36
2023-02-06T06:26:47.977Z,102532.55
2023-02-06T06:29:16.125Z,102532.11
2023-02-06T06:31:44.548Z,102534.89
2023-02-06T06:34:12.578Z,102534.11
2023-02-06T06:36:40.774Z,102527.80
2023-02-06T06:39:08.707Z,102527.44
2023-02-06T06:41:36.942Z,102531.10
2023-02-06T06:44:05.178Z,102536.30
2023-02-06T06:46:33.543Z,102539.45
2023-02-06T06:49:01.764Z,102536.84
2023-02-06T06:51:30.314Z,102541.64
2023-02-06T06:53:58.465Z,102548.27
2023-02-06T06:56:27.250Z,102551.34
2023-02-06T06:58:55.846Z,102549.48
2023-02-06T07:01:23.835Z,102547.83
2023-02-06T07:03:52.594Z,102552.30
2023-02-06T07:06:20.869Z,102552.13
2023-02-06T07:08:48.834Z,102554.17
2023-02-06T07:11:18.316Z,102558.33
2023-02-06T07:13:46.333Z,102560.69
2023-02-06T07:16:14.431Z,102563.16
2023-02-06T07:18:43.282Z,102564.02
2023-02-06T07:21:11.854Z,102560.79
2023-02-06T07:23:40.333Z,102562.00
2023-02-06T07:26:08.616Z,102567.17
2023-02-06T07:28:37.396Z,102567.34
2023-02-06T07:31:07.072Z,102564.30
2023-02-06T07:33:35.704Z,102565.40
2023-02-06T07:36:04.311Z,102566.91
2023-02-06T07:38:32.573Z,102561.64
2023-02-06T07:41:02.737Z,102560.46
2023-02-06T07:43:31.656Z,102555.75
2023-02-06T07:46:01.531Z,102559.40
2023-02-06T07:48:30.155Z,102563.13
2023-02-06T07:51:05.463Z,102563.14
2023-02-06T07:53:34.388Z,102565.30
2023-02-06T07:56:03.076Z,102561.65
2023-02-06T07:58:31.043Z,102562.24
2023-02-06T08:01:04.930Z,102566.02
2023-02-06T08:03:34.250Z,102570.91
2023-02-06T08:06:08.422Z,102570.39
2023-02-06T08:08:36.637Z,102568.97
2023-02-06T08:11:06.905Z,102570.13
2023-02-06T08:13:35.491Z,102569.96
2023-02-06T08:16:08.917Z,102576.61
2023-02-06T08:18:38.032Z,102577.45
2023-02-06T08:21:09.792Z,102584.05
2023-02-06T08:23:38.787Z,102582.95
2023-02-06T08:26:18.227Z,102583.75
2023-02-06T08:28:49.619Z,102582.08
2023-02-06T08:31:26.534Z,102578.14
2023-02-06T08:33:55.452Z,102577.45
2023-02-06T08:36:24.849Z,102578.99
2023-02-06T08:38:53.374Z,102580.36
2023-02-06T08:41:30.889Z,102578.45
2023-02-06T08:44:00.794Z,102577.84
2023-02-06T08:46:31.811Z,102573.55
2023-02-06T08:49:04.011Z,102571.75
2023-02-06T08:51:33.648Z,102572.13
2023-02-06T08:54:04.612Z,102572.69
2023-02-06T08:56:34.437Z,102568.48
2023-02-06T08:59:04.134Z,102564.97
2023-02-06T09:01:34.278Z,102564.96
2023-02-06T09:04:09.400Z,102565.36
2023-02-06T09:06:43.206Z,102568.41
2023-02-06T09:09:12.790Z,102567.70
2023-02-06T09:11:41.623Z,102570.52
2023-02-06T09:14:14.928Z,102571.14
2023-02-06T09:16:43.647Z,102573.10
2023-02-06T09:19:12.224Z,102571.54
2023-02-06T09:21:40.601Z,102573.38
2023-02-06T09:24:09.671Z,102581.83
2023-02-06T09:26:53.417Z,102584.72
2023-02-06T09:29:25.931Z,102587.59
2023-02-06T09:31:53.980Z,102591.61
2023-02-06T09:34:21.996Z,102591.04
2023-02-06T09:36:50.320Z,102585.50
2023-02-06T09:39:18.598Z,102587.39
2023-02-06T09:41:51.416Z,102586.66
2023-02-06T09:44:22.117Z,102583.64
2023-02-06T09:47:02.787Z,102582.04
2023-02-06T09:50:02.941Z,102583.49
2023-02-06T09:52:55.038Z,102584.61
2023-02-06T09:55:38.091Z,102581.36
2023-02-06T09:58:31.040Z,102584.09
2023-02-06T10:01:08.430Z,102583.39
2023-02-06T10:03:50.158Z,102577.51
2023-02-06T10:06:24.306Z,102576.29
2023-02-06T10:09:37.434Z,102578.02
2023-02-06T10:12:14.828Z,102571.80
2023-02-06T10:14:50.914Z,102569.88
2023-02-06T10:17:28.113Z,102566.91
2023-02-06T10:19:59.532Z,102565.58
2023-02-06T10:22:47.080Z,102562.57
2023-02-06T10:25:29.569Z,102557.87
2023-02-06T10:28:02.468Z,102553.73
2023-02-06T10:31:09.602Z,102554.50
2023-02-06T10:34:21.560Z,102557.95
2023-02-06T10:37:00.252Z,102550.23
2023-02-06T10:40:05.491Z,102548.92
2023-02-06T10:43:04.960Z,102551.27
2023-02-06T10:45:51.972Z,102549.27
2023-02-06T10:48:39.278Z,102541.30
2023-02-06T10:51:19.017Z,102539.38
2023-02-06T10:53:52.257Z,102537.71
2023-02-06T10:56:28.955Z,102535.08
2023-02-06T10:59:04.903Z,102533.39
2023-02-06T11:01:38.569Z,102532.63
2023-02-06T11:04:21.012Z,102538.81
2023-02-06T11:06:49.698Z,102541.65
2023-02-06T11:09:17.667Z,102540.69
2023-02-06T11:11:51.477Z,102537.75
2023-02-06T11:14:25.309Z,102531.88
2023-02-06T11:16:54.069Z,102527.34
2023-02-06T11:19:36.163Z,102527.58
2023-02-06T11:22:07.510Z,102528.30
2023-02-06T11:24:37.449Z,102530.98
2023-02-06T11:27:22.978Z,102541.77
2023-02-06T11:29:52.263Z,102549.61
2023-02-06T11:32:38.015Z,102549.36
2023-02-06T11:35:28.287Z,102551.92
2023-02-06T11:38:13.558Z,102554.98
2023-02-06T11:40:42.260Z,102556.91
2023-02-06T11:43:16.378Z,102564.52
2023-02-06T11:45:47.368Z,102563.00
2023-02-06T11:48:38.420Z,102565.56
2023-02-06T11:51:08.260Z,102564.39
2023-02-06T11:53:38.251Z,102564.90
2023-02-06T11:56:16.143Z,102569.37
2023-02-06T11:58:45.659Z,102568.07
2023-02-06T12:01:21.070Z,102569.80
2023-02-06T12:03:56.510Z,102568.52
2023-02-06T12:06:32.598Z,102573.70
2023-02-06T12:09:04.075Z,102577.09
2023-02-06T12:11:58.553Z,102571.15
2023-02-06T12:14:51.590Z,102563.94
2023-02-06T12:17:28.330Z,102566.85
2023-02-06T12:20:03.527Z,102571.29
2023-02-06T12:22:38.878Z,102570.77
2023-02-06T12:25:24.745Z,102565.21
2023-02-06T12:27:58.244Z,102554.95
2023-02-06T12:30:40.742Z,102551.42
2023-02-06T12:33:23.548Z,102553.52
2023-02-06T12:36:03.522Z,102550.49
2023-02-06T12:38:40.696Z,102552.04
2023-02-06T12:41:23.808Z,102549.27
2023-02-06T12:44:19.653Z,102548.03
2023-02-06T12:46:57.370Z,102551.50
2023-02-06T12:49:42.221Z,102554.73
2023-02-06T12:52:17.540Z,102556.34
2023-02-06T12:54:59.623Z,102557.96
2023-02-06T12:57:31.654Z,102556.38
2023-02-06T13:00:18.955Z,102551.56
2023-02-06T13:03:24.768Z,102553.10
2023-02-06T13:06:04.017Z,102555.96
2023-02-06T13:08:47.331Z,102556.94
2023-02-06T13:11:21.454Z,102555.80
2023-02-06T13:13:50.253Z,102561.36
2023-02-06T13:16:19.237Z,102566.81
2023-02-06T13:18:52.691Z,102568.08
2023-02-06T13:21:32.371Z,102571.08
2023-02-06T13:24:03.535Z,102573.05
2023-02-06T13:26:53.102Z,102571.11
2023-02-06T13:29:26.861Z,102574.88
2023-02-06T13:32:12.610Z,102573.23
2023-02-06T13:34:43.406Z,102571.50
2023-02-06T13:37:26.641Z,102571.65
2023-02-06T13:40:22.414Z,102571.91
2023-02-06T13:43:05.990Z,102571.15
2023-02-06T13:45:37.008Z,102568.28
2023-02-06T13:48:14.639Z,102566.02
2023-02-06T13:50:54.583Z,102561.92
2023-02-06T13:54:03.311Z,102560.79
2023-02-06T13:56:46.988Z,102563.00
2023-02-06T13:59:23.158Z,102562.59
2023-02-06T14:01:56.571Z,102567.59
2023-02-06T14:04:28.730Z,102564.10
2023-02-06T14:07:35.339Z,102560.44
2023-02-06T14:10:38.853Z,102560.25
2023-02-06T14:13:24.359Z,102552.76
2023-02-06T14:16:26.947Z,102551.48
2023-02-06T14:19:04.641Z,102556.30
2023-02-06T14:21:58.880Z,102550.71
2023-02-06T14:24:54.533Z,102543.98
2023-02-06T14:27:32.031Z,102546.88
2023-02-06T14:30:38.272Z,102548.13
2023-02-06T14:33:34.066Z,102551.16
2023-02-06T14:36:12.820Z,102546.90
2023-02-06T14:38:59.292Z,102545.02
2023-02-06T14:41:30.326Z,102552.16
2023-02-06T14:43:59.880Z,102549.25
2023-02-06T14:46:29.416Z,102546.73
2023-02-06T14:48:59.688Z,102544.44
2023-02-06T14:51:38.241Z,102543.83
2023-02-06T14:54:27.085Z,102542.17
2023-02-06T14:57:00.489Z,102546.58
2023-02-06T14:59:29.468Z,102548.23
2023-02-06T15:02:12.282Z,102548.30
2023-02-06T15:04:47.772Z,102556.30
2023-02-06T15:07:35.422Z,102561.54
2023-02-06T15:10:18.390Z,102569.59
2023-02-06T15:12:53.826Z,102570.27
2023-02-06T15:15:24.935Z,102570.25
2023-02-06T15:18:14.682Z,102569.87
2023-02-06T15:20:45.296Z,102576.61
2023-02-06T15:23:57.243Z,102573.87
2023-02-06T15:26:25.546Z,102579.69
2023-02-06T15:28:58.817Z,102573.67
2023-02-06T15:31:28.754Z,102570.48
2023-02-06T15:34:01.511Z,102577.02
2023-02-06T15:36:38.633Z,102573.56
2023-02-06T15:39:09.682Z,102573.77
2023-02-06T15:41:41.083Z,102572.85
2023-02-06T15:44:17.803Z,102576.49
2023-02-06T15:46:48.422Z,102583.50
2023-02-06T15:49:37.548Z,102583.48
2023-02-06T15:52:06.029Z,102579.48
2023-02-06T15:54:34.534Z,102580.70
2023-02-06T15:57:04.838Z,102579.55
2023-02-06T15:59:37.021Z,102579.83
2023-02-06T16:02:05.980Z,102580.52
2023-02-06T16:04:39.848Z,102581.65
2023-02-06T16:07:19.767Z,102582.73
2023-02-06T16:10:12.447Z,102590.66
2023-02-06T16:12:43.522Z,102590.38
2023-02-06T16:15:27.249Z,102594.84
2023-02-06T16:17:56.767Z,102604.27
2023-02-06T16:20:37.274Z,102612.91
2023-02-06T16:23:27.159Z,102619.19
2023-02-06T16:26:17.423Z,102621.59
2023-02-06T16:29:03.022Z,102628.16
2023-02-06T16:31:35.057Z,102629.39
2023-02-06T16:34:29.661Z,102626.51
2023-02-06T16:36:57.828Z,102633.61
2023-02-06T16:39:25.823Z,102638.03
2023-02-06T16:41:54.272Z,102633.98
2023-02-06T16:44:22.347Z,102634.05
2023-02-06T16:46:50.345Z,102635.38
2023-02-06T16:49:21.777Z,102633.11
2023-02-06T16:51:53.664Z,102639.54
2023-02-06T16:54:32.077Z,102641.28
2023-02-06T16:57:11.425Z,102638.34
2023-02-06T16:59:39.482Z,102636.34
2023-02-06T17:02:14.668Z,102635.33
2023-02-06T17:04:42.792Z,102626.71
2023-02-06T17:07:23.137Z,102626.73
2023-02-06T17:09:54.077Z,102632.72
2023-02-06T17:12:22.984Z,102635.72
2023-02-06T17:14:51.111Z,102642.24
2023-02-06T17:17:20.958Z,102640.69
2023-02-06T17:19:50.805Z,102642.98
2023-02-06T17:22:19.117Z,102642.84
2023-02-06T17:24:47.491Z,102643.52
2023-02-06T17:27:20.070Z,102642.92
2023-02-06T17:29:49.606Z,102635.36
2023-02-06T17:32:22.307Z,102629.66
2023-02-06T17:34:54.349Z,102630.71
2023-02-06T17:37:22.595Z,102635.13
2023-02-06T17:39:52.310Z,102634.16
2023-02-06T17:42:22.191Z,102633.05
2023-02-06T17:44:50.722Z,102635.56
2023-02-06T17:47:18.977Z,102634.71
2023-02-06T17:49:47.251Z,102632.45
2023-02-06T17:52:15.732Z,102633.21
2023-02-06T17:54:44.801Z,102634.11
2023-02-06T17:57:13.720Z,102636.55
2023-02-06T17:59:42.106Z,102635.92
2023-02-06T18:02:14.855Z,102644.09
2023-02-06T18:04:43.156Z,102653.05
2023-02-06T18:07:11.226Z,102654.91
2023-02-06T18:09:41.768Z,102652.58
2023-02-06T18:12:10.131Z,102650.52
2023-02-06T18:14:39.859Z,102643.27
2023-02-06T18:17:08.750Z,102641.49
2023-02-06T18:19:42.302Z,102640.43
2023-02-06T18:22:13.421Z,102644.48
2023-02-06T18:24:41.759Z,102647.16
2023-02-06T18:27:10.776Z,102643.14
2023-02-06T18:29:49.420Z,102649.30
2023-02-06T18:32:19.117Z,102656.22
2023-02-06T18:34:47.698Z,102649.40
2023-02-06T18:37:16.259Z,102644.54
2023-02-06T18:39:44.530Z,102639.64
2023-02-06T18:42:31.772Z,102640.60
2023-02-06T18:44:59.904Z,102648.73
2023-02-06T18:47:28.073Z,102649.55
2023-02-06T18:49:56.025Z,102649.91
2023-02-06T18:52:24.327Z,102653.18
2023-02-06T18:54:52.389Z,102655.02
2023-02-06T18:57:20.463Z,102660.59
2023-02-06T18:59:49.042Z,102659.10
2023-02-06T19:02:17.420Z,102655.52
2023-02-06T19:04:45.738Z,102656.55
2023-02-06T19:07:13.981Z,102660.07
2023-02-06T19:09:42.357Z,102662.30
2023-02-06T19:12:10.544Z,102660.50
2023-02-06T19:14:40.206Z,102661.75
2023-02-06T19:17:08.424Z,102668.46
2023-02-06T19:19:36.589Z,102670.89
2023-02-06T19:22:04.658Z,102667.64
2023-02-06T19:24:32.757Z,102664.21
2023-02-06T19:27:02.201Z,102659.46
2023-02-06T19:29:36.145Z,102663.09
2023-02-06T19:32:06.721Z,102667.77
2023-02-06T19:34:37.201Z,102669.98
2023-02-06T19:37:07.734Z,102671.57
2023-02-06T19:39:37.247Z,102679.80
2023-02-06T19:42:07.113Z,102686.05
2023-02-06T19:44:35.855Z,102682.72
2023-02-06T19:47:04.352Z,102676.00
2023-02-06T19:49:32.765Z,102672.80
2023-02-06T19:52:01.618Z,102675.08
2023-02-06T19:54:29.569Z,102675.89
2023-02-06T19:56:57.576Z,102665.29
2023-02-06T19:59:27.830Z,102665.89
2023-02-06T20:02:02.974Z,102668.85
2023-02-06T20:04:34.692Z,102671.33
2023-02-06T20:07:03.139Z,102681.60
2023-02-06T20:09:31.819Z,102681.70
2023-02-06T20:12:00.485Z,102679.25
2023-02-06T20:14:29.114Z,102692.93
2023-02-06T20:16:57.219Z,102690.88
2023-02-06T20:19:27.948Z,102689.54
2023-02-06T20:21:59.037Z,102669.58
2023-02-06T20:24:30.202Z,102662.26
2023-02-06T20:27:01.492Z,102676.15
2023-02-06T20:29:33.040Z,102674.20
2023-02-06T20:32:01.565Z,102680.51
2023-02-06T20:34:29.865Z,102673.50
2023-02-06T20:36:58.703Z,102671.51
2023-02-06T20:39:27.820Z,102675.64
2023-02-06T20:41:56.458Z,102670.83
2023-02-06T20:44:24.716Z,102672.29
2023-02-06T20:46:53.017Z,102674.36
2023-02-06T20:49:24.400Z,102673.16
2023-02-06T20:51:52.900Z,102680.48
2023-02-06T20:54:21.959Z,102682.58
2023-02-06T20:56:50.140Z,102681.23
2023-02-06T20:59:20.046Z,102684.99
2023-02-06T21:01:48.625Z,102694.92
2023-02-06T21:04:18.181Z,102693.64
2023-02-06T21:06:48.767Z,102701.35
2023-02-06T21:09:18.061Z,102708.89
2023-02-06T21:11:48.442Z,102712.30
2023-02-06T21:14:17.695Z,102717.38
2023-02-06T21:16:46.799Z,102717.33
2023-02-06T21:19:17.332Z,102716.16
2023-02-06T21:21:46.297Z,102720.36
2023-02-06T21:24:16.935Z,102719.30
2023-02-06T21:26:45.224Z,102719.55
2023-02-06T21:29:15.015Z,102725.59
2023-02-06T21:31:43.454Z,102720.63
2023-02-06T21:34:14.967Z,102724.52
2023-02-06T21:36:44.263Z,102725.52
2023-02-06T21:39:22.269Z,102713.73
2023-02-06T21:41:56.778Z,102708.91
2023-02-06T21:44:25.411Z,102707.03
2023-02-06T21:46:54.153Z,102705.23
2023-02-06T21:49:23.460Z,102693.05
2023-02-06T21:51:53.367Z,102696.20
2023-02-06T21:54:22.619Z,102695.96
2023-02-06T21:56:51.725Z,102696.80
2023-02-06T21:59:19.736Z,102696.60
2023-02-06T22:01:47.750Z,102693.27
2023-02-06T22:04:15.871Z,102699.52
2023-02-06T22:06:44.158Z,102700.78
2023-02-06T22:09:16.540Z,102699.55
2023-02-06T22:11:44.694Z,102695.11
2023-02-06T22:14:17.818Z,102700.94
2023-02-06T22:16:46.996Z,102698.90
2023-02-06T22:19:16.929Z,102700.71
2023-02-06T22:21:46.021Z,102700.02
2023-02-06T22:24:14.060Z,102698.39
2023-02-06T22:26:43.362Z,102696.22
2023-02-06T22:29:14.860Z,102692.31
2023-02-06T22:31:44.878Z,102691.89
2023-02-06T22:34:18.484Z,102687.16
2023-02-06T22:36:47.316Z,102679.34
2023-02-06T22:39:15.693Z,102676.08
2023-02-06T22:41:45.683Z,102672.15
2023-02-06T22:44:16.822Z,102672.36
2023-02-06T22:46:48.505Z,102668.58
2023-02-06T22:49:17.456Z,102671.16
2023-02-06T22:51:46.087Z,102668.48
2023-02-06T22:54:15.087Z,102669.84
2023-02-06T22:56:44.102Z,102670.69
2023-02-06T22:59:21.739Z,102666.80
2023-02-06T23:02:30.795Z,102656.05
2023-02-06T23:04:59.272Z,102665.98
2023-02-06T23:07:27.655Z,102660.77
2023-02-06T23:09:55.843Z,102663.67
2023-02-06T23:12:23.796Z,102664.27
2023-02-06T23:14:51.867Z,102663.43
2023-02-06T23:17:19.943Z,102664.89
2023-02-06T23:19:48.114Z,102665.70
2023-02-06T23:22:16.184Z,102670.67
2023-02-06T23:24:44.458Z,102676.20
2023-02-06T23:27:12.633Z,102672.57
2023-02-06T23:29:40.705Z,102672.58
2023-02-06T23:32:08.779Z,102669.88
2023-02-06T23:34:38.534Z,102665.04
2023-02-06T23:37:07.070Z,102667.56
2023-02-06T23:39:35.348Z,102661.62
2023-02-06T23:42:03.437Z,102660.79
2023-02-06T23:44:31.685Z,102659.15
2023-02-06T23:46:59.858Z,102661.77
2023-02-06T23:49:27.838Z,102662.19
2023-02-06T23:51:56.109Z,102660.21
2023-02-06T23:54:24.185Z,102654.41
2023-02-06T23:56:52.246Z,102652.00
2023-02-06T23:59:20.321Z,102649.85
